^^

Nearby METAR Reports

 

EGAC - Belfast Harbour, United Kingdom
Distance from station: W 8mi, 13km
Updated: 22/09/2019 09:20
Light rain, Partly cloudy
Light rain, Partly cloudy
 Wind from ESE
Wind: ESE 7 mph , 11 km/h
Temperature: 16°C
Dew Point: 14°C
Humidity: 88%
Barometer: 999 hPa
Summary: Light rain
Clouds: Partly cloudy
Visibility: 4 miles , 6 km
Cloud details: Partly cloudy 1158 m
2019/09/22 08:20 EGAC 220820Z AUTO 11006KT 070V150 6000 -RA SCT038/// 16/14 Q0999
EGAA - Belfast/Aldergro, United Kingdom
Distance from station: W 22mi, 35km
Updated: 22/09/2019 09:20
Few Clouds
Few Clouds
 Wind from ESE
Wind: ESE 17 mph , 28 km/h
Temperature: 16°C
Dew Point: 13°C
Humidity: 83%
Barometer: 999 hPa
Clouds: Few Clouds
Visibility: 6 miles , 10 km
Cloud details: Few Clouds 701 m
2019/09/22 08:20 EGAA 220820Z 12015KT 9999 FEW023 16/13 Q0999
 
EGNS - Isle Of Man/Rona, United Kingdom
Distance from station: SE 57mi, 91km
Updated: 22/09/2019 09:20
Few Clouds
Few Clouds
 Wind from E
Wind: E 17 mph , 28 km/h
Temperature: 16°C
Dew Point: 15°C
Humidity: 94%
Barometer: 999 hPa
Clouds: Few Clouds
Visibility: 6 miles , 10 km
Cloud details: Few Clouds 183 m
2019/09/22 08:20 EGNS 220820Z 10015KT 9999 FEW006 16/15 Q0999 NOSIG
EGPK - Prestwick(Civ/Na, United Kingdom
Distance from station: NE 74mi, 119km
Updated: 22/09/2019 09:20
Partly cloudy
Partly cloudy
 Wind from ENE
Wind: ENE 2 mph , 4 km/h
Temperature: 15°C
Dew Point: 13°C
Humidity: 88%
Barometer: 1002 hPa
Clouds: Partly cloudy
Visibility: 6 miles , 9 km
Cloud details: Few Clouds 610 m
Partly cloudy 1067 m
2019/09/22 08:20 EGPK 220820Z 06002KT 9000 FEW020 SCT035 15/13 Q1002
 
EIDW - Dublin Airport, Ireland
Distance from station: SSW 87mi, 141km
Updated: 22/09/2019 09:00
Light rain, Mostly cloudy
Light rain, Mostly cloudy
 Wind from ESE
Wind: ESE 6 mph , 9 km/h
Temperature: 14°C
Dew Point: 14°C
Humidity: 100%
Barometer: 999 hPa
Summary: Light rain
Clouds: Mostly cloudy
Visibility: 6 miles , 10 km
Cloud details: Few Clouds 122 m
Mostly cloudy 1433 m
Mostly cloudy 1829 m
2019/09/22 08:00 EIDW 220800Z 11005KT 9999 -RA FEW004 BKN047 BKN060 14/14 Q0999 TEMPO BKN008
EGPF - Glasgow Airport, United Kingdom
Distance from station: NNE 98mi, 158km
Updated: 22/09/2019 09:20
Light rain, Thunderstorm
Light rain, Thunderstorm
 Wind from E
Wind: E 12 mph , 19 km/h
Temperature: 13°C
Dew Point: 12°C
Humidity: 94%
Barometer: 1003 hPa
Summary: Light rain
Clouds: Thunderstorm
Visibility: 6 miles , 10 km
Cloud details: Mostly cloudy 335 m
2019/09/22 08:20 EGPF 220820Z AUTO 08010KT 9999 -RA BKN011/// //////CB 13/12 Q1003